createdAt,value
2017-04-30T17:51:00.691Z,17.20
2017-04-30T17:53:27.651Z,17.20
2017-04-30T17:55:54.643Z,17.20
2017-04-30T17:58:21.626Z,17.10
2017-04-30T18:00:48.642Z,17.10
2017-04-30T18:03:15.736Z,17.10
2017-04-30T18:05:42.955Z,17.20
2017-04-30T18:08:09.903Z,17.10
2017-04-30T18:10:36.893Z,17.20
2017-04-30T18:13:03.881Z,17.20
2017-04-30T18:15:30.848Z,17.10
2017-04-30T18:17:57.858Z,17.00
2017-04-30T18:20:25.550Z,17.00
2017-04-30T18:22:52.577Z,16.90
2017-04-30T18:25:21.217Z,16.70
2017-04-30T18:27:48.175Z,16.70
2017-04-30T18:30:15.630Z,16.60
2017-04-30T18:32:42.597Z,16.60
2017-04-30T18:35:10.331Z,16.50
2017-04-30T18:37:37.739Z,16.50
2017-04-30T18:40:04.722Z,16.50
2017-04-30T18:42:31.753Z,16.50
2017-04-30T18:44:58.760Z,16.40
2017-04-30T18:47:26.473Z,16.30
2017-04-30T18:49:53.432Z,16.30
2017-04-30T18:52:20.423Z,16.20
2017-04-30T18:54:48.131Z,16.10
2017-04-30T18:57:15.188Z,16.10
2017-04-30T18:59:42.217Z,16.00
2017-04-30T19:02:09.656Z,15.90
2017-04-30T19:04:36.675Z,15.70
2017-04-30T19:09:58.969Z,15.60
2017-04-30T19:19:13.324Z,15.60
2017-04-30T19:21:41.971Z,15.50
2017-04-30T19:24:09.844Z,15.40
2017-04-30T19:26:36.831Z,15.40
2017-04-30T19:29:04.566Z,15.30
2017-04-30T19:31:32.745Z,15.20
2017-04-30T19:34:00.360Z,15.10
2017-04-30T19:36:27.994Z,15.00
2017-04-30T19:38:56.307Z,15.00
2017-04-30T19:41:23.378Z,14.90
2017-04-30T19:43:51.451Z,14.80
2017-04-30T19:46:18.412Z,14.80
2017-04-30T19:48:45.367Z,14.70
2017-04-30T19:51:12.380Z,14.70
2017-04-30T19:53:39.395Z,14.60
2017-04-30T19:56:06.397Z,14.50
2017-04-30T19:58:33.414Z,14.40
2017-04-30T20:01:00.380Z,14.20
2017-04-30T20:03:27.385Z,14.20
2017-04-30T20:05:54.372Z,14.20
2017-04-30T20:08:21.345Z,14.00
2017-04-30T20:10:49.632Z,13.70
2017-04-30T20:13:17.416Z,13.70
2017-04-30T20:15:44.420Z,13.60
2017-04-30T20:18:12.444Z,13.40
2017-04-30T20:20:39.432Z,13.30
2017-04-30T20:23:06.441Z,13.20
2017-04-30T20:25:33.507Z,13.20
2017-04-30T20:28:00.500Z,13.10
2017-04-30T20:30:28.847Z,12.90
2017-04-30T20:32:56.165Z,12.90
2017-04-30T20:35:23.152Z,12.80
2017-04-30T20:37:50.164Z,12.80
2017-04-30T20:40:17.192Z,12.70
2017-04-30T20:42:44.193Z,12.60
2017-04-30T20:45:11.325Z,12.40
2017-04-30T20:47:38.313Z,12.30
2017-04-30T20:50:06.047Z,12.20
2017-04-30T20:52:33.087Z,12.10
2017-04-30T20:55:00.076Z,12.10
2017-04-30T20:57:27.045Z,12.00
2017-04-30T20:59:54.027Z,11.90
2017-04-30T21:02:21.011Z,11.90
2017-04-30T21:04:48.772Z,11.70
2017-04-30T21:07:16.501Z,11.70
2017-04-30T21:09:43.487Z,11.70
2017-04-30T21:12:10.491Z,11.60
2017-04-30T21:14:37.497Z,11.60
2017-04-30T21:17:04.496Z,11.60
2017-04-30T21:19:31.509Z,11.50
2017-04-30T21:21:58.507Z,11.50
2017-04-30T21:24:26.344Z,11.50
2017-04-30T21:26:53.311Z,11.50
2017-04-30T21:29:20.283Z,11.50
2017-04-30T21:31:47.256Z,11.50
2017-04-30T21:34:14.182Z,11.50
2017-04-30T21:36:41.273Z,11.40
2017-04-30T21:39:08.270Z,11.40
2017-04-30T21:41:35.235Z,11.30
2017-04-30T21:44:02.286Z,11.20
2017-04-30T21:46:29.260Z,11.20
2017-04-30T21:48:56.248Z,11.20
2017-04-30T21:51:23.965Z,11.10
2017-04-30T21:53:50.972Z,11.20
2017-04-30T21:56:17.981Z,11.10
2017-04-30T21:58:44.999Z,11.10
2017-04-30T22:01:11.977Z,11.10
2017-04-30T22:03:38.968Z,11.10
2017-04-30T22:06:05.931Z,11.10
2017-04-30T22:08:32.918Z,11.10
2017-04-30T22:10:59.924Z,11.00
2017-04-30T22:13:26.973Z,11.00
2017-04-30T22:15:53.951Z,10.90
2017-04-30T22:18:20.936Z,10.90
2017-04-30T22:20:47.958Z,10.80
2017-04-30T22:23:15.692Z,10.80
2017-04-30T22:25:42.646Z,10.70
2017-04-30T22:28:09.667Z,10.80
2017-04-30T22:30:36.685Z,10.80
2017-04-30T22:33:03.722Z,10.70
2017-04-30T22:35:31.471Z,10.80
2017-04-30T22:37:58.476Z,10.70
2017-04-30T22:40:25.466Z,10.60
2017-04-30T22:42:53.184Z,10.50
2017-04-30T22:45:20.200Z,10.50
2017-04-30T22:47:47.196Z,10.30
2017-04-30T22:50:14.230Z,10.30
2017-04-30T22:52:41.253Z,10.20
2017-04-30T22:55:08.334Z,10.20
2017-04-30T22:57:35.313Z,10.10
2017-04-30T23:00:03.068Z,10.00
2017-04-30T23:02:30.042Z,10.00
2017-04-30T23:04:57.033Z,9.90
2017-04-30T23:07:24.016Z,9.90
2017-04-30T23:09:51.016Z,9.80
2017-04-30T23:12:18.080Z,9.80
2017-04-30T23:14:45.055Z,9.80
2017-04-30T23:17:12.772Z,9.80
2017-04-30T23:19:39.731Z,9.70
2017-04-30T23:22:06.720Z,9.70
2017-04-30T23:24:34.530Z,9.60
2017-04-30T23:27:01.491Z,9.60
2017-04-30T23:29:28.483Z,9.60
2017-04-30T23:31:56.232Z,9.60
2017-04-30T23:34:23.924Z,9.60
2017-04-30T23:36:50.914Z,9.50
2017-04-30T23:39:17.893Z,9.60
2017-04-30T23:41:45.662Z,9.60
2017-04-30T23:44:13.401Z,9.50
2017-04-30T23:46:40.396Z,9.50
2017-04-30T23:49:07.391Z,9.60
2017-04-30T23:51:34.394Z,9.50
2017-04-30T23:54:01.380Z,9.60
2017-04-30T23:56:28.359Z,9.60
2017-04-30T23:58:56.076Z,9.50
